createdAt,value
2023-05-11T00:03:56.822Z,9.73
2023-05-11T00:08:58.716Z,8.20
2023-05-11T00:14:00.713Z,6.78
2023-05-11T00:19:02.570Z,6.63
2023-05-11T00:24:04.442Z,6.38
2023-05-11T00:29:06.361Z,7.35
2023-05-11T00:34:08.136Z,7.53
2023-05-11T00:39:11.930Z,7.95
2023-05-11T00:44:13.790Z,7.28
2023-05-11T00:49:17.479Z,7.57
2023-05-11T00:54:19.985Z,6.63
2023-05-11T00:59:21.766Z,6.95
2023-05-11T01:04:23.736Z,7.45
2023-05-11T01:09:58.226Z,7.30
2023-05-11T01:15:39.990Z,7.25
2023-05-11T01:20:44.117Z,6.60
2023-05-11T01:26:15.247Z,8.15
2023-05-11T01:31:19.528Z,8.38
2023-05-11T01:36:29.401Z,6.78
2023-05-11T01:41:34.671Z,7.53
2023-05-11T01:46:36.810Z,8.48
2023-05-11T01:51:39.635Z,7.47
2023-05-11T01:56:44.355Z,7.65
2023-05-11T02:01:47.114Z,7.95
2023-05-11T02:06:51.098Z,6.75
2023-05-11T02:11:56.163Z,6.45
2023-05-11T02:16:58.669Z,6.90
2023-05-11T02:22:01.641Z,6.80
2023-05-11T02:27:03.675Z,6.72
2023-05-11T02:32:12.295Z,6.40
2023-05-11T02:37:18.437Z,6.90
2023-05-11T02:42:23.424Z,6.43
2023-05-11T02:47:30.450Z,7.00
2023-05-11T02:52:33.885Z,7.05
2023-05-11T02:57:35.899Z,7.13
2023-05-11T03:02:37.886Z,6.47
2023-05-11T03:07:39.738Z,6.53
2023-05-11T03:12:41.585Z,7.38
2023-05-11T03:17:44.014Z,6.72
2023-05-11T03:22:46.643Z,8.05
2023-05-11T03:27:50.596Z,7.38
2023-05-11T03:32:52.973Z,7.05
2023-05-11T03:37:57.207Z,6.55
2023-05-11T03:43:02.128Z,7.53
2023-05-11T03:48:05.761Z,7.80
2023-05-11T03:53:07.790Z,7.68
2023-05-11T03:58:10.400Z,7.75
2023-05-11T04:03:12.596Z,8.50
2023-05-11T04:08:14.872Z,10.60
2023-05-11T04:13:16.682Z,11.40
2023-05-11T04:18:18.475Z,12.98
2023-05-11T04:23:20.332Z,11.70
2023-05-11T04:28:27.573Z,12.10
2023-05-11T04:33:29.354Z,13.43
2023-05-11T04:38:31.137Z,12.43
2023-05-11T04:43:32.953Z,13.52
2023-05-11T04:48:34.711Z,12.95
2023-05-11T04:53:36.505Z,13.07
2023-05-11T04:58:38.332Z,12.00
2023-05-11T05:03:40.415Z,11.30
2023-05-11T05:08:42.329Z,11.05
2023-05-11T05:13:44.337Z,12.32
2023-05-11T05:18:46.520Z,11.85
2023-05-11T05:23:48.395Z,10.93
2023-05-11T05:28:50.170Z,11.45
2023-05-11T05:33:51.962Z,10.38
2023-05-11T05:38:53.791Z,9.25
2023-05-11T05:43:55.626Z,8.38
2023-05-11T05:48:57.461Z,8.48
2023-05-11T05:53:59.323Z,8.63
2023-05-11T05:59:01.544Z,8.55
2023-05-11T06:04:03.852Z,7.97
2023-05-11T06:09:06.074Z,7.38
2023-05-11T06:14:07.871Z,6.70
2023-05-11T06:19:09.663Z,7.25
2023-05-11T06:24:11.705Z,7.15
2023-05-11T06:29:13.493Z,6.90
2023-05-11T06:34:15.413Z,7.90
2023-05-11T06:39:17.174Z,6.90
2023-05-11T06:44:18.975Z,7.43
2023-05-11T06:49:21.037Z,6.97
2023-05-11T06:54:22.942Z,6.47
2023-05-11T06:59:25.114Z,6.53
2023-05-11T07:04:27.141Z,6.47
2023-05-11T07:09:29.064Z,7.25
2023-05-11T07:14:30.839Z,7.20
2023-05-11T07:19:33.005Z,7.22
2023-05-11T07:24:34.859Z,7.40
2023-05-11T07:29:36.987Z,6.60
2023-05-11T07:34:41.124Z,6.60
2023-05-11T07:39:42.937Z,6.55
2023-05-11T07:44:44.854Z,6.18
2023-05-11T07:49:47.648Z,6.22
2023-05-11T07:54:49.431Z,5.80
2023-05-11T07:59:51.329Z,5.53
2023-05-11T08:04:53.105Z,4.80
2023-05-11T08:09:54.905Z,3.80
2023-05-11T08:14:56.691Z,3.97
2023-05-11T08:19:58.702Z,4.20
2023-05-11T08:25:00.785Z,3.90
2023-05-11T08:30:03.165Z,3.70
2023-05-11T08:35:05.733Z,3.85
2023-05-11T08:40:09.840Z,4.18
2023-05-11T08:45:12.794Z,2.95
2023-05-11T08:50:14.902Z,3.92
2023-05-11T08:55:17.553Z,3.55
2023-05-11T09:00:20.773Z,3.88
2023-05-11T09:05:23.885Z,3.45
2023-05-11T09:10:25.930Z,2.85
2023-05-11T09:15:27.675Z,3.13
2023-05-11T09:20:31.909Z,3.55
2023-05-11T09:25:35.044Z,3.50
2023-05-11T09:30:37.015Z,3.67
2023-05-11T09:35:38.775Z,2.90
2023-05-11T09:40:49.526Z,3.08
2023-05-11T09:45:56.438Z,3.13
2023-05-11T09:51:05.325Z,3.05
2023-05-11T09:56:07.559Z,2.80
2023-05-11T10:01:09.400Z,2.97
2023-05-11T10:06:11.289Z,2.75
2023-05-11T10:11:13.234Z,2.60
2023-05-11T10:16:16.744Z,2.70
2023-05-11T10:21:18.845Z,2.83
2023-05-11T10:26:20.943Z,2.63
2023-05-11T10:31:24.317Z,2.42
2023-05-11T10:36:26.996Z,2.90
2023-05-11T10:41:47.956Z,2.60
2023-05-11T10:46:52.503Z,2.83
2023-05-11T10:52:06.226Z,2.90
2023-05-11T10:57:18.136Z,2.78
2023-05-11T11:02:20.321Z,2.53
2023-05-11T11:07:22.110Z,2.95
2023-05-11T11:12:26.998Z,3.33
2023-05-11T11:17:32.228Z,4.07
2023-05-11T11:22:41.650Z,3.30
2023-05-11T11:27:49.655Z,3.00
2023-05-11T11:32:54.033Z,2.53
2023-05-11T11:38:03.181Z,3.03
2023-05-11T11:43:12.748Z,2.38
2023-05-11T11:48:16.251Z,2.33
2023-05-11T11:53:37.097Z,2.42
2023-05-11T11:58:41.967Z,2.92
2023-05-11T12:03:46.955Z,2.50
2023-05-11T12:08:49.111Z,2.95
2023-05-11T12:13:51.316Z,3.35
2023-05-11T12:18:55.285Z,2.80
2023-05-11T12:24:02.013Z,3.40
2023-05-11T12:29:14.881Z,3.47
2023-05-11T12:34:17.876Z,4.72
2023-05-11T12:39:25.037Z,3.33
2023-05-11T12:44:27.151Z,3.38
2023-05-11T12:49:29.311Z,2.95
2023-05-11T12:54:32.472Z,3.20
2023-05-11T12:59:39.741Z,3.05
2023-05-11T13:04:43.107Z,2.75
2023-05-11T13:09:59.404Z,2.97
2023-05-11T13:15:13.293Z,2.53
2023-05-11T13:20:27.202Z,2.30
2023-05-11T13:25:29.150Z,2.67
2023-05-11T13:30:35.335Z,2.30
2023-05-11T13:35:44.178Z,2.75
2023-05-11T13:40:46.330Z,2.03
2023-05-11T13:45:48.129Z,3.03
2023-05-11T13:50:49.966Z,2.92
2023-05-11T13:55:52.260Z,3.22
2023-05-11T14:01:07.205Z,2.67
2023-05-11T14:06:10.384Z,2.92
2023-05-11T14:11:12.174Z,2.97
2023-05-11T14:16:14.040Z,4.95
2023-05-11T14:21:17.221Z,21.55
2023-05-11T14:26:19.063Z,5.07
2023-05-11T14:31:20.838Z,3.63
2023-05-11T14:36:22.798Z,3.50
2023-05-11T14:41:24.740Z,3.65
2023-05-11T14:46:26.983Z,4.13
2023-05-11T14:51:28.951Z,3.40
2023-05-11T14:56:30.955Z,3.83
2023-05-11T15:01:32.880Z,3.70
2023-05-11T15:06:34.877Z,4.13
2023-05-11T15:11:39.714Z,3.38
2023-05-11T15:16:41.571Z,4.95
2023-05-11T15:21:43.498Z,7.18
2023-05-11T15:26:45.312Z,5.95
2023-05-11T15:31:47.130Z,8.77
2023-05-11T15:36:49.861Z,10.90
2023-05-11T15:41:51.647Z,9.68
2023-05-11T15:46:54.172Z,10.85
2023-05-11T15:51:56.000Z,10.30
2023-05-11T15:56:58.795Z,10.00
2023-05-11T16:02:00.787Z,7.78
2023-05-11T16:07:02.597Z,9.30
2023-05-11T16:12:04.705Z,8.90
2023-05-11T16:17:07.729Z,9.70
2023-05-11T16:22:09.565Z,10.27
2023-05-11T16:27:11.386Z,8.73
2023-05-11T16:32:14.315Z,8.55
2023-05-11T16:37:16.292Z,7.85
2023-05-11T16:42:19.279Z,9.18
2023-05-11T16:47:22.089Z,8.23
2023-05-11T16:52:24.701Z,7.78
2023-05-11T16:57:26.753Z,7.90
2023-05-11T17:02:28.848Z,6.60
2023-05-11T17:07:30.939Z,6.43
2023-05-11T17:12:35.536Z,6.00
2023-05-11T17:17:38.101Z,6.45
2023-05-11T17:22:40.066Z,5.65
2023-05-11T17:27:41.908Z,6.22
2023-05-11T17:32:44.091Z,6.72
2023-05-11T17:37:46.209Z,7.25
2023-05-11T17:42:48.095Z,6.95
2023-05-11T17:47:50.663Z,6.75
2023-05-11T17:52:52.545Z,10.45
2023-05-11T17:57:54.289Z,10.20
2023-05-11T18:02:56.169Z,9.07
2023-05-11T18:07:58.187Z,9.07
2023-05-11T18:12:59.938Z,7.88
2023-05-11T18:18:02.271Z,9.02
2023-05-11T18:23:04.575Z,9.00
2023-05-11T18:28:06.437Z,9.02
2023-05-11T18:33:08.451Z,10.02
2023-05-11T18:38:10.435Z,10.57
2023-05-11T18:43:12.658Z,9.13
2023-05-11T18:48:15.801Z,8.75
2023-05-11T18:53:17.680Z,8.93
2023-05-11T18:58:20.524Z,7.28
2023-05-11T19:03:23.854Z,8.05
2023-05-11T19:08:25.878Z,7.00
2023-05-11T19:13:27.880Z,7.03
2023-05-11T19:18:29.752Z,8.10
2023-05-11T19:23:32.226Z,10.27
2023-05-11T19:28:34.228Z,9.10
2023-05-11T19:33:36.144Z,8.70
2023-05-11T19:38:38.192Z,9.98
2023-05-11T19:43:39.970Z,9.23
2023-05-11T19:48:43.124Z,10.48
2023-05-11T19:53:45.005Z,9.90
2023-05-11T19:58:46.858Z,10.70
2023-05-11T20:03:48.907Z,10.25
2023-05-11T20:08:51.692Z,10.90
2023-05-11T20:13:53.865Z,10.35
2023-05-11T20:18:55.836Z,11.00
2023-05-11T20:23:57.684Z,11.20
2023-05-11T20:28:59.678Z,11.27
2023-05-11T20:39:07.058Z,11.57
2023-05-11T20:44:13.686Z,11.63
2023-05-11T20:49:22.139Z,13.48
2023-05-11T20:54:26.942Z,11.40
2023-05-11T21:04:36.113Z,11.95
2023-05-11T21:09:37.929Z,13.23
2023-05-11T21:14:40.192Z,12.63
2023-05-11T21:19:41.930Z,13.98
2023-05-11T21:24:43.750Z,14.00
2023-05-11T21:29:45.514Z,13.13
2023-05-11T21:34:47.447Z,13.13
2023-05-11T21:39:49.227Z,14.10
2023-05-11T21:44:51.514Z,14.75
2023-05-11T21:49:53.271Z,14.52
2023-05-11T21:54:55.050Z,14.70
2023-05-11T21:59:57.053Z,15.07
2023-05-11T22:04:58.820Z,15.40
2023-05-11T22:10:00.566Z,14.93
2023-05-11T22:15:03.828Z,15.77
2023-05-11T22:20:09.916Z,15.90
2023-05-11T22:25:11.858Z,16.55
2023-05-11T22:30:13.997Z,17.52
2023-05-11T22:35:15.995Z,16.50
2023-05-11T22:40:18.574Z,17.75
2023-05-11T22:45:20.783Z,17.13
2023-05-11T22:50:22.706Z,17.10
2023-05-11T22:55:25.192Z,16.52
2023-05-11T23:00:27.535Z,18.08
2023-05-11T23:05:30.004Z,17.77
2023-05-11T23:10:32.189Z,17.35
2023-05-11T23:15:33.973Z,18.63
2023-05-11T23:20:35.857Z,17.65
2023-05-11T23:25:37.660Z,17.73
2023-05-11T23:30:39.432Z,18.48
2023-05-11T23:35:41.362Z,18.83
2023-05-11T23:40:43.186Z,18.20
2023-05-11T23:45:45.399Z,17.75
2023-05-11T23:50:47.420Z,17.40
2023-05-11T23:55:49.264Z,17.90
